Terminal Aerodrome Forecast
Issued by NWS Cleveland, OH

Home | Current Version | Previous Version | Text Only | Print | Product List | Glossary Off
Versions: 1 2 3 4 5 6 7 8 9 10 11 12 13 14 15 16 17 18 19 20

000
FTUS41 KCLE 311800 CCA
TAFERI
TAF COR
KERI 311800Z 3118/0118 23010KT 1SM RA BR BKN015 OVC025
     FM311830 23010KT 5SM -RA BR BKN015 OVC025
     FM312200 21010KT P6SM SCT020 OVC035
     FM010700 18005KT P6SM SCT015 BKN030=

USA.gov is the U.S. government's official web portal to all federal, state and local government web resources and services.